createdAt,value
2018-06-05T00:01:18.668Z,18.14
2018-06-05T00:03:45.562Z,18.10
2018-06-05T00:06:12.518Z,18.09
2018-06-05T00:08:39.480Z,18.11
2018-06-05T00:11:06.382Z,18.12
2018-06-05T00:13:33.294Z,18.10
2018-06-05T00:16:00.310Z,18.03
2018-06-05T00:18:27.230Z,17.98
2018-06-05T00:20:54.499Z,17.95
2018-06-05T00:23:21.655Z,17.91
2018-06-05T00:25:48.559Z,17.86
2018-06-05T00:28:15.490Z,17.74
2018-06-05T00:30:42.403Z,17.65
2018-06-05T00:33:09.310Z,17.59
2018-06-05T00:35:36.222Z,17.55
2018-06-05T00:38:03.170Z,17.46
2018-06-05T00:40:30.116Z,17.37
2018-06-05T00:42:57.087Z,17.31
2018-06-05T00:45:24.138Z,17.27
2018-06-05T00:47:51.168Z,17.19
2018-06-05T00:50:18.165Z,17.09
2018-06-05T00:52:45.102Z,17.05
2018-06-05T00:55:12.024Z,17.03
2018-06-05T00:57:39.197Z,17.03
2018-06-05T01:00:06.135Z,17.03
2018-06-05T01:02:33.054Z,17.04
2018-06-05T01:04:59.971Z,17.03
2018-06-05T01:07:26.910Z,17.02
2018-06-05T01:09:53.918Z,16.98
2018-06-05T01:12:20.883Z,16.94
2018-06-05T01:14:47.822Z,16.89
2018-06-05T01:17:14.767Z,16.86
2018-06-05T01:19:41.696Z,16.84
2018-06-05T01:22:08.638Z,16.84
2018-06-05T01:24:35.683Z,16.73
2018-06-05T01:27:02.682Z,16.73
2018-06-05T01:29:29.611Z,16.70
2018-06-05T01:31:56.816Z,16.72
2018-06-05T01:34:23.835Z,16.74
2018-06-05T01:36:50.815Z,16.75
2018-06-05T01:39:17.982Z,16.76
2018-06-05T01:41:44.922Z,16.78
2018-06-05T01:44:11.846Z,16.80
2018-06-05T01:46:38.779Z,16.83
2018-06-05T01:49:05.775Z,16.85
2018-06-05T01:51:32.788Z,16.86
2018-06-05T01:53:59.818Z,16.89
2018-06-05T01:56:26.723Z,16.90
2018-06-05T01:58:53.710Z,16.93
2018-06-05T02:01:20.639Z,16.97
2018-06-05T02:03:47.631Z,16.87
2018-06-05T02:06:14.676Z,16.88
2018-06-05T02:08:42.105Z,16.89
2018-06-05T02:11:09.247Z,16.91
2018-06-05T02:13:36.182Z,16.94
2018-06-05T02:16:03.128Z,16.92
2018-06-05T02:18:30.057Z,16.91
2018-06-05T02:20:57.164Z,16.94
2018-06-05T02:23:24.110Z,16.96
2018-06-05T02:25:51.064Z,16.99
2018-06-05T02:28:17.999Z,17.00
2018-06-05T02:30:44.979Z,17.01
2018-06-05T02:33:12.005Z,16.97
2018-06-05T02:35:38.928Z,16.95
2018-06-05T02:38:05.891Z,16.94
2018-06-05T02:40:32.820Z,16.96
2018-06-05T02:42:59.756Z,16.98
2018-06-05T02:45:26.682Z,16.99
2018-06-05T02:47:53.594Z,16.89
2018-06-05T02:50:20.543Z,16.86
2018-06-05T02:52:47.475Z,16.86
2018-06-05T02:55:14.409Z,16.85
2018-06-05T02:57:41.819Z,16.85
2018-06-05T03:00:08.747Z,16.81
2018-06-05T03:02:35.654Z,16.81
2018-06-05T03:05:02.647Z,16.80
2018-06-05T03:07:29.680Z,16.83
2018-06-05T03:09:56.639Z,16.80
2018-06-05T03:12:23.887Z,16.82
2018-06-05T03:14:50.850Z,16.85
2018-06-05T03:17:17.797Z,16.86
2018-06-05T03:19:44.914Z,16.85
2018-06-05T03:22:11.851Z,16.85
2018-06-05T03:24:38.850Z,16.88
2018-06-05T03:27:05.940Z,16.90
2018-06-05T03:29:32.931Z,16.88
2018-06-05T03:31:59.854Z,16.86
2018-06-05T03:34:26.891Z,16.80
2018-06-05T03:36:53.847Z,16.79
2018-06-05T03:39:20.786Z,16.81
2018-06-05T03:41:47.690Z,16.84
2018-06-05T03:44:14.727Z,16.87
2018-06-05T03:46:41.642Z,16.88
2018-06-05T03:49:08.710Z,16.89
2018-06-05T03:51:35.747Z,16.91
2018-06-05T03:54:02.693Z,16.94
2018-06-05T03:56:29.723Z,16.93
2018-06-05T03:58:56.710Z,16.90
2018-06-05T04:01:23.698Z,16.92
2018-06-05T04:03:50.626Z,16.91
2018-06-05T04:06:17.545Z,16.95
2018-06-05T04:08:44.547Z,17.01
2018-06-05T04:11:11.510Z,17.01
2018-06-05T04:13:38.614Z,17.02
2018-06-05T04:16:05.547Z,17.01
2018-06-05T04:18:32.515Z,17.01
2018-06-05T04:20:59.456Z,17.04
2018-06-05T04:23:26.374Z,17.04
2018-06-05T04:25:53.314Z,17.02
2018-06-05T04:28:20.395Z,17.04
2018-06-05T04:30:47.320Z,17.01
2018-06-05T04:33:14.278Z,17.05
2018-06-05T04:35:41.212Z,17.11
2018-06-05T04:38:08.163Z,17.18
2018-06-05T04:40:35.121Z,17.27
2018-06-05T04:43:02.121Z,17.30
2018-06-05T04:45:29.111Z,17.37
2018-06-05T04:47:56.081Z,17.34
2018-06-05T04:50:23.303Z,17.38
2018-06-05T04:52:50.223Z,17.48
2018-06-05T04:55:17.146Z,17.54
2018-06-05T04:57:44.059Z,17.50
2018-06-05T05:00:11.018Z,17.44
2018-06-05T05:02:37.918Z,17.44
2018-06-05T05:05:04.875Z,17.40
2018-06-05T05:07:31.891Z,17.37
2018-06-05T05:09:58.846Z,17.36
2018-06-05T05:12:25.766Z,17.39
2018-06-05T05:14:52.771Z,17.45
2018-06-05T05:17:19.768Z,17.42
2018-06-05T05:19:46.678Z,17.42
2018-06-05T05:22:13.651Z,17.49
2018-06-05T05:24:40.571Z,17.54
2018-06-05T05:27:07.515Z,17.59
2018-06-05T05:29:34.418Z,17.63
2018-06-05T05:32:01.408Z,17.71
2018-06-05T05:34:28.463Z,17.81
2018-06-05T05:36:55.411Z,17.91
2018-06-05T05:39:22.347Z,18.04
2018-06-05T05:41:49.490Z,18.10
2018-06-05T05:44:16.398Z,18.08
2018-06-05T05:46:43.650Z,18.13
2018-06-05T05:49:10.567Z,18.13
2018-06-05T05:51:37.525Z,18.18
2018-06-05T05:54:04.491Z,18.23
2018-06-05T05:56:31.478Z,18.29
2018-06-05T05:58:58.402Z,18.37
2018-06-05T06:01:25.884Z,18.33
2018-06-05T06:03:52.825Z,18.39
2018-06-05T06:06:19.817Z,18.55
2018-06-05T06:08:46.742Z,18.61
2018-06-05T06:11:13.701Z,18.76
2018-06-05T06:13:40.819Z,18.89
2018-06-05T06:16:07.751Z,18.99
2018-06-05T06:18:34.728Z,18.87
2018-06-05T06:21:01.646Z,18.93
2018-06-05T06:23:28.583Z,18.85
2018-06-05T06:25:55.574Z,18.83
2018-06-05T06:28:22.450Z,18.64
2018-06-05T06:30:49.728Z,18.53
2018-06-05T06:33:16.687Z,18.51
2018-06-05T06:35:43.663Z,18.75
2018-06-05T06:38:10.587Z,18.80
2018-06-05T06:40:37.539Z,18.66
2018-06-05T06:43:04.551Z,18.72
2018-06-05T06:45:31.786Z,18.70
2018-06-05T06:47:58.763Z,18.70
2018-06-05T06:50:25.742Z,18.74
2018-06-05T06:52:52.683Z,18.92
2018-06-05T06:55:19.607Z,18.92
2018-06-05T06:57:46.563Z,18.85
2018-06-05T07:00:13.571Z,18.90
2018-06-05T07:02:40.494Z,18.89
2018-06-05T07:05:07.503Z,18.84
2018-06-05T07:07:34.603Z,18.87
2018-06-05T07:10:01.652Z,19.00
2018-06-05T07:12:29.498Z,19.01
2018-06-05T07:14:56.611Z,19.17
2018-06-05T07:17:23.531Z,19.38
2018-06-05T07:19:50.486Z,19.58
2018-06-05T07:22:17.421Z,19.59
2018-06-05T07:24:44.340Z,19.52
2018-06-05T07:27:11.302Z,19.47
2018-06-05T07:29:38.221Z,19.36
2018-06-05T07:32:05.293Z,19.36
2018-06-05T07:34:32.271Z,19.58
2018-06-05T07:36:59.203Z,19.60
2018-06-05T07:39:26.120Z,19.70
2018-06-05T07:41:53.054Z,19.86
2018-06-05T07:44:20.044Z,19.83
2018-06-05T07:46:46.951Z,19.81
2018-06-05T07:49:13.863Z,20.05
2018-06-05T07:51:40.791Z,20.30
2018-06-05T07:54:07.751Z,20.44
2018-06-05T07:56:34.695Z,20.35
2018-06-05T07:59:01.611Z,20.07
2018-06-05T08:01:28.543Z,19.91
2018-06-05T08:03:55.563Z,19.93
2018-06-05T08:06:22.677Z,19.94
2018-06-05T08:08:49.667Z,20.01
2018-06-05T08:11:16.563Z,19.91
2018-06-05T08:13:43.486Z,19.94
2018-06-05T08:16:10.516Z,19.93
2018-06-05T08:18:37.437Z,20.02
2018-06-05T08:21:04.723Z,20.11
2018-06-05T08:23:31.646Z,20.16
2018-06-05T08:25:58.643Z,20.15
2018-06-05T08:28:25.559Z,20.13
2018-06-05T08:30:52.519Z,20.18
2018-06-05T08:33:19.467Z,20.24
2018-06-05T08:35:46.462Z,20.32
2018-06-05T08:38:13.381Z,20.37
2018-06-05T08:40:40.290Z,20.37
2018-06-05T08:43:07.214Z,20.42
2018-06-05T08:45:34.118Z,20.45
2018-06-05T08:48:01.063Z,20.53
2018-06-05T08:50:27.970Z,20.48
2018-06-05T08:52:55.015Z,20.45
2018-06-05T08:55:21.978Z,20.45
2018-06-05T08:57:48.919Z,20.53
2018-06-05T09:00:15.842Z,20.62
2018-06-05T09:02:43.139Z,20.66
2018-06-05T09:05:10.206Z,20.69
2018-06-05T09:07:37.262Z,20.70
2018-06-05T09:10:04.218Z,20.68
2018-06-05T09:12:31.195Z,20.75
2018-06-05T09:14:58.090Z,20.78
2018-06-05T09:17:25.026Z,20.74
2018-06-05T09:19:51.963Z,20.80
2018-06-05T09:22:18.932Z,20.77
2018-06-05T09:24:45.878Z,20.82
2018-06-05T09:27:12.783Z,20.85
2018-06-05T09:29:39.704Z,20.91
2018-06-05T09:32:06.642Z,21.04
2018-06-05T09:34:33.593Z,21.06
2018-06-05T09:37:00.579Z,21.09
2018-06-05T09:39:27.536Z,21.16
2018-06-05T09:41:54.512Z,21.28
2018-06-05T09:44:21.492Z,21.35
2018-06-05T09:46:48.564Z,21.24
2018-06-05T09:49:15.874Z,21.20
2018-06-05T09:51:42.775Z,21.07
2018-06-05T09:54:10.109Z,21.11
2018-06-05T09:56:37.020Z,21.33
2018-06-05T09:59:04.032Z,21.56
2018-06-05T10:01:31.111Z,21.69
2018-06-05T10:03:58.080Z,21.75
2018-06-05T10:06:25.132Z,21.86
2018-06-05T10:08:52.063Z,22.00
2018-06-05T10:11:19.114Z,22.10
2018-06-05T10:13:46.183Z,22.23
2018-06-05T10:16:13.258Z,22.32
2018-06-05T10:18:40.191Z,22.39
2018-06-05T10:21:07.133Z,22.38
2018-06-05T10:23:34.075Z,22.49
2018-06-05T10:26:01.000Z,22.61
2018-06-05T10:28:27.954Z,22.55
2018-06-05T10:30:54.866Z,22.41
2018-06-05T10:33:21.787Z,22.52
2018-06-05T10:35:48.771Z,22.62
2018-06-05T10:38:15.716Z,22.73
2018-06-05T10:40:42.628Z,22.77
2018-06-05T10:43:09.546Z,22.86
2018-06-05T10:45:36.503Z,22.96
2018-06-05T10:48:03.443Z,23.04
2018-06-05T10:50:30.532Z,23.12
2018-06-05T10:52:57.458Z,23.09
2018-06-05T10:55:24.505Z,23.13
2018-06-05T10:57:51.422Z,23.19
2018-06-05T11:00:18.487Z,23.16
2018-06-05T11:02:45.386Z,23.15
2018-06-05T11:05:12.337Z,23.13
2018-06-05T11:07:39.256Z,23.05
2018-06-05T11:10:06.184Z,23.22
2018-06-05T11:12:33.103Z,23.25
2018-06-05T11:15:00.031Z,23.25
2018-06-05T11:17:26.929Z,23.34
2018-06-05T11:19:53.860Z,23.46
2018-06-05T11:22:20.887Z,23.65
2018-06-05T11:24:47.799Z,23.77
2018-06-05T11:27:14.739Z,23.75
2018-06-05T11:29:41.686Z,23.81
2018-06-05T11:32:08.582Z,23.91
2018-06-05T11:34:35.966Z,23.85
2018-06-05T11:37:02.887Z,23.73
2018-06-05T11:39:29.818Z,23.56
2018-06-05T11:41:57.338Z,23.55
2018-06-05T11:44:24.483Z,23.64
2018-06-05T11:46:51.537Z,23.81
2018-06-05T11:49:18.416Z,23.93
2018-06-05T11:51:45.480Z,23.86
2018-06-05T11:54:12.485Z,23.97
2018-06-05T11:56:39.346Z,23.80
2018-06-05T11:59:06.726Z,23.95
2018-06-05T12:01:33.626Z,24.05
2018-06-05T12:04:00.526Z,24.23
2018-06-05T12:06:27.970Z,24.24
2018-06-05T12:08:54.946Z,24.28
2018-06-05T12:11:21.931Z,24.31
2018-06-05T12:13:49.155Z,24.37
2018-06-05T12:16:16.085Z,24.52
2018-06-05T12:18:43.007Z,24.62
2018-06-05T12:21:09.974Z,24.70
2018-06-05T12:23:36.879Z,24.66
2018-06-05T12:26:04.447Z,24.62
2018-06-05T12:28:31.363Z,24.73
2018-06-05T12:30:58.348Z,24.84
2018-06-05T12:33:25.219Z,24.79
2018-06-05T12:35:52.155Z,24.74
2018-06-05T12:38:19.122Z,24.75
2018-06-05T12:40:46.111Z,24.62
2018-06-05T12:43:13.031Z,24.53
2018-06-05T12:45:39.955Z,24.74
2018-06-05T12:48:06.881Z,24.92
2018-06-05T12:50:33.819Z,24.87
2018-06-05T12:53:00.744Z,24.76
2018-06-05T12:55:27.691Z,24.75
2018-06-05T12:57:54.654Z,24.79
2018-06-05T13:00:21.550Z,24.73
2018-06-05T13:02:48.504Z,24.67
2018-06-05T13:05:15.454Z,24.62
2018-06-05T13:07:42.400Z,24.73
2018-06-05T13:10:09.352Z,24.87
2018-06-05T13:12:36.287Z,25.05
2018-06-05T13:15:04.208Z,25.13
2018-06-05T13:17:31.194Z,25.24
2018-06-05T13:19:58.152Z,25.24
2018-06-05T13:22:25.077Z,25.40
2018-06-05T13:24:51.997Z,25.48
2018-06-05T13:27:18.980Z,25.52
2018-06-05T13:29:45.883Z,25.48
2018-06-05T13:32:12.847Z,25.50
2018-06-05T13:34:39.784Z,25.45
2018-06-05T13:37:06.759Z,25.52
2018-06-05T13:39:33.683Z,25.41
2018-06-05T13:42:00.591Z,25.44
2018-06-05T13:44:27.499Z,25.58
2018-06-05T13:46:54.490Z,25.71
2018-06-05T13:49:21.427Z,25.87
2018-06-05T13:51:48.363Z,25.97
2018-06-05T13:54:15.439Z,26.04
2018-06-05T13:56:42.420Z,26.12
2018-06-05T13:59:09.315Z,26.03
2018-06-05T14:01:36.575Z,25.98
2018-06-05T14:04:03.487Z,25.99
2018-06-05T14:06:31.187Z,25.95
2018-06-05T14:08:58.120Z,25.93
2018-06-05T14:11:25.774Z,25.89
2018-06-05T14:13:52.855Z,25.89
2018-06-05T14:16:19.899Z,25.95
2018-06-05T14:18:46.820Z,25.96
2018-06-05T14:21:13.740Z,26.00
2018-06-05T14:23:40.647Z,26.00
2018-06-05T14:26:07.599Z,25.98
2018-06-05T14:28:34.503Z,25.90
2018-06-05T14:31:01.418Z,25.93
2018-06-05T14:33:28.335Z,25.94
2018-06-05T14:35:55.276Z,25.92
2018-06-05T14:38:22.223Z,25.88
2018-06-05T14:40:49.171Z,25.88
2018-06-05T14:43:16.130Z,25.91
2018-06-05T14:45:43.115Z,25.92
2018-06-05T14:48:10.065Z,25.87
2018-06-05T14:50:37.011Z,25.71
2018-06-05T14:53:03.920Z,25.75
2018-06-05T14:55:30.880Z,25.73
2018-06-05T14:57:57.943Z,25.73
2018-06-05T15:00:24.910Z,25.75
2018-06-05T15:02:51.851Z,25.74
2018-06-05T15:05:18.894Z,25.72
2018-06-05T15:07:45.811Z,25.62
2018-06-05T15:10:12.783Z,25.59
2018-06-05T15:12:39.767Z,25.59
2018-06-05T15:15:06.726Z,25.61
2018-06-05T15:17:33.757Z,25.62
2018-06-05T15:20:00.812Z,25.56
2018-06-05T15:22:27.754Z,25.66
2018-06-05T15:24:54.674Z,25.70
2018-06-05T15:27:21.639Z,25.64
2018-06-05T15:29:48.574Z,25.62
2018-06-05T15:32:15.534Z,25.69
2018-06-05T15:34:42.438Z,25.76
2018-06-05T15:37:09.424Z,25.85
2018-06-05T15:39:36.475Z,25.89
2018-06-05T15:42:03.508Z,25.95
2018-06-05T15:44:30.470Z,25.98
2018-06-05T15:46:57.530Z,26.04
2018-06-05T15:49:24.511Z,25.96
2018-06-05T15:51:51.447Z,25.88
2018-06-05T15:54:18.386Z,25.87
2018-06-05T15:56:45.359Z,25.85
2018-06-05T15:59:12.271Z,25.84
2018-06-05T16:01:39.423Z,25.80
2018-06-05T16:04:06.403Z,25.70
2018-06-05T16:06:33.387Z,25.70
2018-06-05T16:09:00.499Z,25.67
2018-06-05T16:11:27.430Z,25.72
2018-06-05T16:13:54.487Z,25.70
2018-06-05T16:16:21.414Z,25.64
2018-06-05T16:18:48.459Z,25.62
2018-06-05T16:21:15.375Z,25.65
2018-06-05T16:23:42.322Z,25.63
2018-06-05T16:26:09.226Z,25.61
2018-06-05T16:28:36.271Z,25.67
2018-06-05T16:31:03.200Z,25.67
2018-06-05T16:33:30.143Z,25.70
2018-06-05T16:35:57.060Z,25.66
2018-06-05T16:38:23.969Z,25.62
2018-06-05T16:40:51.055Z,25.48
2018-06-05T16:43:17.962Z,25.48
2018-06-05T16:45:45.007Z,25.61
2018-06-05T16:48:11.952Z,25.71
2018-06-05T16:50:38.879Z,25.79
2018-06-05T16:53:05.800Z,25.85
2018-06-05T16:55:32.708Z,25.85
2018-06-05T16:57:59.819Z,25.90
2018-06-05T17:00:26.737Z,25.95
2018-06-05T17:02:53.687Z,25.90
2018-06-05T17:05:20.659Z,25.84
2018-06-05T17:07:48.250Z,25.76
2018-06-05T17:10:15.163Z,25.69
2018-06-05T17:12:42.111Z,25.55
2018-06-05T17:15:09.088Z,25.44
2018-06-05T17:17:36.264Z,25.31
2018-06-05T17:20:03.308Z,25.17
2018-06-05T17:22:30.271Z,25.03
2018-06-05T17:24:57.199Z,24.95
2018-06-05T17:27:24.172Z,24.85
2018-06-05T17:29:51.203Z,24.76
2018-06-05T17:32:18.107Z,24.71
2018-06-05T17:34:45.076Z,24.63
2018-06-05T17:37:12.023Z,24.55
2018-06-05T17:39:39.082Z,24.51
2018-06-05T17:42:06.022Z,24.45
2018-06-05T17:44:32.956Z,24.39
2018-06-05T17:47:00.011Z,24.44
2018-06-05T17:49:27.053Z,24.53
2018-06-05T17:51:54.004Z,24.62
2018-06-05T17:54:20.999Z,24.64
2018-06-05T17:56:47.918Z,24.66
2018-06-05T17:59:14.852Z,24.63
2018-06-05T18:01:41.767Z,24.60
2018-06-05T18:04:08.703Z,24.53
2018-06-05T18:06:35.644Z,24.52
2018-06-05T18:09:03.066Z,24.49
2018-06-05T18:11:30.003Z,24.52
2018-06-05T18:13:57.043Z,24.61
2018-06-05T18:16:23.964Z,24.67
2018-06-05T18:18:50.924Z,24.76
2018-06-05T18:21:17.890Z,24.88
2018-06-05T18:23:44.831Z,24.94
2018-06-05T18:26:11.739Z,24.98
2018-06-05T18:28:38.686Z,24.88
2018-06-05T18:31:05.602Z,24.76
2018-06-05T18:33:32.552Z,24.66
2018-06-05T18:35:59.469Z,24.56
2018-06-05T18:38:26.394Z,24.46
2018-06-05T18:40:53.323Z,24.36
2018-06-05T18:43:20.383Z,24.25
2018-06-05T18:45:47.320Z,24.20
2018-06-05T18:48:15.059Z,24.16
2018-06-05T18:50:41.999Z,24.09
2018-06-05T18:53:08.914Z,24.02
2018-06-05T18:55:35.841Z,23.92
2018-06-05T18:58:02.789Z,23.81
2018-06-05T19:00:29.722Z,23.72
2018-06-05T19:02:56.667Z,23.64
2018-06-05T19:05:23.603Z,23.58
2018-06-05T19:07:50.603Z,23.54
2018-06-05T19:10:17.542Z,23.49
2018-06-05T19:12:44.551Z,23.43
2018-06-05T19:15:11.475Z,23.35
2018-06-05T19:17:38.437Z,23.29
2018-06-05T19:20:05.423Z,23.23
2018-06-05T19:22:32.336Z,23.17
2018-06-05T19:24:59.286Z,23.11
2018-06-05T19:27:26.199Z,23.05
2018-06-05T19:29:53.110Z,22.97
2018-06-05T19:32:20.039Z,22.91
2018-06-05T19:34:47.054Z,22.85
2018-06-05T19:37:14.016Z,22.78
2018-06-05T19:39:40.970Z,22.69
2018-06-05T19:42:07.930Z,22.64
2018-06-05T19:44:34.859Z,22.60
2018-06-05T19:47:01.818Z,22.53
2018-06-05T19:49:28.754Z,22.46
2018-06-05T19:51:55.909Z,22.39
2018-06-05T19:54:23.164Z,22.30
2018-06-05T19:56:50.097Z,22.26
2018-06-05T19:59:17.039Z,22.15
2018-06-05T20:01:43.967Z,22.04
2018-06-05T20:04:10.895Z,21.96
2018-06-05T20:06:37.844Z,21.92
2018-06-05T20:09:06.490Z,21.83
2018-06-05T20:11:33.494Z,21.77
2018-06-05T20:14:00.447Z,21.73
2018-06-05T20:16:27.360Z,21.69
2018-06-05T20:18:54.255Z,21.64
2018-06-05T20:21:21.202Z,21.57
2018-06-05T20:23:48.125Z,21.51
2018-06-05T20:26:15.064Z,21.43
2018-06-05T20:28:42.031Z,21.38
2018-06-05T20:31:09.147Z,21.33
2018-06-05T20:33:36.043Z,21.26
2018-06-05T20:36:02.955Z,21.21
2018-06-05T20:38:29.868Z,21.18
2018-06-05T20:40:56.823Z,21.11
2018-06-05T20:43:23.723Z,21.08
2018-06-05T20:45:50.696Z,21.04
2018-06-05T20:48:17.598Z,20.99
2018-06-05T20:50:44.559Z,20.97
2018-06-05T20:53:11.490Z,20.93
2018-06-05T20:55:38.414Z,20.91
2018-06-05T20:58:05.390Z,20.88
2018-06-05T21:00:32.363Z,20.84
2018-06-05T21:02:59.275Z,20.80
2018-06-05T21:05:26.616Z,20.77
2018-06-05T21:07:53.530Z,20.73
2018-06-05T21:10:20.493Z,20.69
2018-06-05T21:12:47.595Z,20.65
2018-06-05T21:15:14.539Z,20.58
2018-06-05T21:17:41.514Z,20.53
2018-06-05T21:20:08.460Z,20.49
2018-06-05T21:22:35.507Z,20.45
2018-06-05T21:25:02.492Z,20.40
2018-06-05T21:27:29.738Z,20.36
2018-06-05T21:29:56.646Z,20.34
2018-06-05T21:32:23.717Z,20.31
2018-06-05T21:34:50.628Z,20.29
2018-06-05T21:37:17.591Z,20.25
2018-06-05T21:39:44.583Z,20.22
2018-06-05T21:42:11.511Z,20.18
2018-06-05T21:44:38.430Z,20.15
2018-06-05T21:47:05.351Z,20.09
2018-06-05T21:49:32.340Z,20.06
2018-06-05T21:51:59.268Z,20.04
2018-06-05T21:54:26.516Z,20.02
2018-06-05T21:56:53.779Z,19.96
2018-06-05T21:59:20.739Z,19.93
2018-06-05T22:01:47.756Z,19.88
2018-06-05T22:04:14.666Z,19.84
2018-06-05T22:06:41.623Z,19.83
2018-06-05T22:09:08.535Z,19.83
2018-06-05T22:11:35.799Z,19.79
2018-06-05T22:14:03.158Z,19.76
2018-06-05T22:16:30.168Z,19.72
2018-06-05T22:18:57.072Z,19.69
2018-06-05T22:21:23.990Z,19.63
2018-06-05T22:23:50.935Z,19.61
2018-06-05T22:26:17.903Z,19.59
2018-06-05T22:28:44.830Z,19.56
2018-06-05T22:31:11.808Z,19.51
2018-06-05T22:33:38.743Z,19.48
2018-06-05T22:36:05.689Z,19.44
2018-06-05T22:38:32.628Z,19.41
2018-06-05T22:40:59.539Z,19.38
2018-06-05T22:43:26.489Z,19.34
2018-06-05T22:45:53.447Z,19.31
2018-06-05T22:48:20.383Z,19.27
2018-06-05T22:50:47.362Z,19.24
2018-06-05T22:53:14.286Z,19.20
2018-06-05T22:55:41.222Z,19.18
2018-06-05T22:58:08.171Z,19.13
2018-06-05T23:00:35.149Z,19.10
2018-06-05T23:03:02.179Z,19.07
2018-06-05T23:05:29.095Z,19.04
2018-06-05T23:07:56.027Z,19.01
2018-06-05T23:10:22.943Z,18.97
2018-06-05T23:12:49.936Z,18.95
2018-06-05T23:15:16.850Z,18.91
2018-06-05T23:17:43.778Z,18.88
2018-06-05T23:20:10.756Z,18.83
2018-06-05T23:22:37.975Z,18.80
2018-06-05T23:25:05.084Z,18.79
2018-06-05T23:27:32.879Z,18.75
2018-06-05T23:29:59.840Z,18.73
2018-06-05T23:32:26.824Z,18.70
2018-06-05T23:34:53.739Z,18.69
2018-06-05T23:37:20.727Z,18.65
2018-06-05T23:39:47.711Z,18.62
2018-06-05T23:42:14.651Z,18.60
2018-06-05T23:44:41.584Z,18.58
2018-06-05T23:47:08.519Z,18.56
2018-06-05T23:49:35.469Z,18.52
2018-06-05T23:52:02.411Z,18.50
2018-06-05T23:54:29.910Z,18.46
2018-06-05T23:56:56.886Z,18.42
2018-06-05T23:59:23.839Z,18.40
